createdAt,value
2022-11-27T00:01:15.177Z,5.60
2022-11-27T00:04:17.008Z,5.60
2022-11-27T00:07:18.762Z,5.50
2022-11-27T00:10:20.482Z,5.50
2022-11-27T00:13:22.196Z,5.50
2022-11-27T00:16:24.888Z,5.50
2022-11-27T00:19:26.635Z,5.50
2022-11-27T00:22:28.428Z,5.50
2022-11-27T00:25:30.335Z,5.50
2022-11-27T00:28:32.568Z,5.50
2022-11-27T00:31:37.269Z,5.40
2022-11-27T00:34:39.318Z,5.40
2022-11-27T00:37:41.159Z,5.40
2022-11-27T00:40:42.885Z,5.40
2022-11-27T00:43:45.680Z,5.40
2022-11-27T00:46:47.605Z,5.40
2022-11-27T00:49:49.282Z,5.40
2022-11-27T00:52:50.901Z,5.40
2022-11-27T00:55:52.527Z,5.40
2022-11-27T00:58:54.541Z,5.30
2022-11-27T01:01:56.212Z,5.30
2022-11-27T01:04:57.905Z,5.20
2022-11-27T01:08:03.120Z,5.20
2022-11-27T01:11:05.084Z,5.20
2022-11-27T01:14:12.007Z,5.10
2022-11-27T01:17:13.645Z,5.10
2022-11-27T01:20:15.492Z,5.20
2022-11-27T01:23:17.753Z,5.20
2022-11-27T01:26:19.657Z,5.20
2022-11-27T01:29:21.297Z,5.20
2022-11-27T01:32:22.992Z,5.20
2022-11-27T01:35:24.713Z,5.20
2022-11-27T01:38:27.493Z,5.20
2022-11-27T01:41:32.268Z,5.20
2022-11-27T01:44:36.779Z,5.20
2022-11-27T01:47:46.727Z,5.20
2022-11-27T01:50:48.416Z,5.20
2022-11-27T01:53:52.407Z,5.30
2022-11-27T01:56:59.315Z,5.20
2022-11-27T02:00:30.178Z,5.30
2022-11-27T02:03:32.559Z,5.30
2022-11-27T02:06:34.954Z,5.30
2022-11-27T02:09:36.688Z,5.30
2022-11-27T02:13:00.689Z,5.30
2022-11-27T02:16:29.390Z,5.30
2022-11-27T02:20:08.325Z,5.30
2022-11-27T02:23:25.981Z,5.30
2022-11-27T02:26:42.573Z,5.30
2022-11-27T02:29:48.116Z,5.30
2022-11-27T02:33:01.068Z,5.30
2022-11-27T02:36:18.844Z,5.30
2022-11-27T02:39:27.816Z,5.30
2022-11-27T02:42:34.155Z,5.30
2022-11-27T02:45:42.365Z,5.30
2022-11-27T02:49:06.646Z,5.20
2022-11-27T02:52:11.175Z,5.20
2022-11-27T02:55:17.070Z,5.10
2022-11-27T02:58:21.912Z,5.10
2022-11-27T03:01:25.393Z,5.20
2022-11-27T03:04:34.489Z,5.20
2022-11-27T03:08:14.126Z,5.20
2022-11-27T03:11:17.300Z,5.20
2022-11-27T03:14:24.402Z,5.10
2022-11-27T03:17:43.942Z,5.20
2022-11-27T03:20:49.162Z,5.10
2022-11-27T03:23:51.261Z,5.10
2022-11-27T03:26:53.103Z,5.00
2022-11-27T03:30:04.508Z,5.00
2022-11-27T03:33:06.129Z,4.90
2022-11-27T03:36:16.565Z,4.90
2022-11-27T03:39:19.667Z,4.90
2022-11-27T03:42:24.148Z,4.80
2022-11-27T03:45:44.334Z,4.80
2022-11-27T03:49:21.643Z,4.70
2022-11-27T03:52:48.063Z,4.70
2022-11-27T03:56:09.633Z,4.70
2022-11-27T03:59:26.181Z,4.60
2022-11-27T04:02:40.841Z,4.60
2022-11-27T04:05:42.518Z,4.60
2022-11-27T04:08:46.782Z,4.50
2022-11-27T04:11:48.415Z,4.50
2022-11-27T04:14:50.036Z,4.50
2022-11-27T04:17:51.739Z,4.40
2022-11-27T04:20:54.930Z,4.40
2022-11-27T04:23:56.579Z,4.40
2022-11-27T04:26:58.244Z,4.30
2022-11-27T04:29:59.942Z,4.30
2022-11-27T04:33:04.679Z,4.30
2022-11-27T04:36:06.707Z,4.30
2022-11-27T04:39:08.396Z,4.30
2022-11-27T04:42:10.128Z,4.20
2022-11-27T04:45:11.829Z,4.20
2022-11-27T04:48:13.948Z,4.10
2022-11-27T04:51:15.624Z,4.10
2022-11-27T04:54:17.832Z,4.10
2022-11-27T04:57:19.472Z,4.10
2022-11-27T05:00:21.393Z,4.00
2022-11-27T05:03:23.117Z,4.00
2022-11-27T05:06:24.860Z,4.00
2022-11-27T05:09:26.571Z,3.90
2022-11-27T05:12:28.305Z,3.90
2022-11-27T05:15:29.976Z,3.90
2022-11-27T05:18:32.102Z,3.90
2022-11-27T05:21:33.744Z,3.80
2022-11-27T05:24:35.398Z,3.80
2022-11-27T05:27:37.170Z,3.80
2022-11-27T05:30:38.848Z,3.70
2022-11-27T05:33:40.482Z,3.70
2022-11-27T05:36:42.919Z,3.70
2022-11-27T05:39:44.607Z,3.60
2022-11-27T05:42:46.312Z,3.60
2022-11-27T05:45:47.943Z,3.60
2022-11-27T05:48:50.093Z,3.60
2022-11-27T05:51:52.069Z,3.50
2022-11-27T05:54:54.945Z,3.60
2022-11-27T05:57:56.613Z,3.50
2022-11-27T06:00:58.818Z,3.50
2022-11-27T06:04:03.201Z,3.50
2022-11-27T06:07:05.040Z,3.50
2022-11-27T06:10:07.173Z,3.60
2022-11-27T06:13:08.898Z,3.60
2022-11-27T06:16:17.335Z,3.60
2022-11-27T06:19:19.018Z,3.60
2022-11-27T06:22:20.641Z,3.70
2022-11-27T06:25:23.017Z,3.70
2022-11-27T06:28:24.723Z,3.70
2022-11-27T06:31:29.308Z,3.80
2022-11-27T06:34:31.058Z,3.80
2022-11-27T06:37:33.744Z,3.80
2022-11-27T06:40:35.466Z,3.80
2022-11-27T06:43:37.329Z,3.90
2022-11-27T06:46:40.135Z,3.90
2022-11-27T06:49:41.761Z,3.90
2022-11-27T06:52:46.754Z,3.90
2022-11-27T06:55:48.363Z,3.90
2022-11-27T06:58:58.135Z,4.00
2022-11-27T07:02:01.887Z,4.00
2022-11-27T07:05:03.761Z,4.00
2022-11-27T07:08:05.733Z,3.90
2022-11-27T07:11:11.797Z,3.90
2022-11-27T07:14:13.447Z,3.90
2022-11-27T07:17:15.116Z,3.80
2022-11-27T07:20:16.873Z,3.80
2022-11-27T07:23:18.577Z,3.80
2022-11-27T07:26:28.494Z,3.90
2022-11-27T07:29:30.197Z,3.90
2022-11-27T07:32:31.938Z,3.90
2022-11-27T07:35:33.657Z,4.00
2022-11-27T07:38:38.280Z,4.00
2022-11-27T07:42:11.047Z,4.10
2022-11-27T07:45:21.867Z,4.10
2022-11-27T07:48:23.828Z,4.10
2022-11-27T07:51:25.537Z,4.20
2022-11-27T07:54:27.211Z,4.30
2022-11-27T07:57:29.012Z,4.40
2022-11-27T08:00:30.744Z,4.50
2022-11-27T08:03:32.727Z,4.70
2022-11-27T08:06:34.360Z,4.80
2022-11-27T08:09:36.198Z,4.90
2022-11-27T08:12:37.933Z,5.00
2022-11-27T08:15:39.718Z,5.10
2022-11-27T08:18:41.480Z,5.30
2022-11-27T08:21:43.123Z,5.40
2022-11-27T08:24:45.073Z,5.50
2022-11-27T08:27:48.359Z,5.70
2022-11-27T08:31:01.546Z,5.80
2022-11-27T08:34:03.528Z,6.00
2022-11-27T08:37:06.384Z,6.20
2022-11-27T08:40:14.930Z,6.30
2022-11-27T08:43:16.576Z,6.50
2022-11-27T08:46:18.324Z,6.70
2022-11-27T08:49:20.171Z,6.90
2022-11-27T08:52:21.883Z,7.10
2022-11-27T08:55:23.546Z,7.30
2022-11-27T08:58:26.267Z,7.50
2022-11-27T09:01:30.632Z,7.60
2022-11-27T09:04:32.322Z,7.70
2022-11-27T09:07:34.032Z,7.70
2022-11-27T09:10:36.853Z,7.70
2022-11-27T09:13:40.229Z,7.60
2022-11-27T09:16:42.011Z,7.40
2022-11-27T09:19:43.828Z,7.30
2022-11-27T09:22:45.439Z,7.30
2022-11-27T09:25:47.119Z,7.30
2022-11-27T09:28:48.829Z,7.20
2022-11-27T09:31:51.060Z,7.10
2022-11-27T09:34:52.791Z,7.00
2022-11-27T09:37:57.219Z,7.00
2022-11-27T09:41:06.393Z,7.20
2022-11-27T09:44:31.558Z,7.30
2022-11-27T09:47:41.136Z,7.40
2022-11-27T09:50:50.389Z,7.40
2022-11-27T09:54:12.990Z,7.30
2022-11-27T09:57:37.640Z,7.30
2022-11-27T10:00:39.360Z,7.20
2022-11-27T10:03:42.575Z,7.30
2022-11-27T10:07:14.873Z,7.40
2022-11-27T10:10:46.539Z,7.50
2022-11-27T10:13:59.435Z,7.60
2022-11-27T10:17:26.176Z,7.80
2022-11-27T10:20:48.058Z,7.90
2022-11-27T10:24:02.528Z,8.00
2022-11-27T10:27:32.812Z,8.10
2022-11-27T10:30:43.032Z,8.10
2022-11-27T10:33:57.451Z,8.20
2022-11-27T10:37:02.422Z,8.20
2022-11-27T10:40:22.818Z,8.10
2022-11-27T10:43:25.880Z,8.10
2022-11-27T10:46:32.076Z,8.10
2022-11-27T10:49:42.514Z,8.00
2022-11-27T10:52:56.854Z,8.10
2022-11-27T10:56:15.395Z,8.10
2022-11-27T10:59:43.895Z,8.10
2022-11-27T11:02:46.483Z,8.20
2022-11-27T11:06:23.174Z,8.20
2022-11-27T11:09:31.071Z,8.10
2022-11-27T11:12:33.062Z,8.20
2022-11-27T11:15:43.108Z,8.10
2022-11-27T11:18:46.388Z,8.00
2022-11-27T11:21:48.206Z,7.90
2022-11-27T11:24:52.400Z,7.90
2022-11-27T11:27:54.158Z,7.90
2022-11-27T11:31:03.762Z,8.00
2022-11-27T11:34:23.082Z,8.00
2022-11-27T11:37:33.247Z,8.00
2022-11-27T11:40:37.033Z,8.10
2022-11-27T11:43:52.941Z,8.10
2022-11-27T11:46:55.263Z,8.10
2022-11-27T11:49:57.582Z,8.10
2022-11-27T11:53:15.270Z,8.10
2022-11-27T11:56:40.474Z,8.10
2022-11-27T11:59:54.147Z,8.00
2022-11-27T12:03:04.945Z,8.00
2022-11-27T12:06:33.554Z,8.00
2022-11-27T12:09:50.032Z,7.90
2022-11-27T12:13:13.589Z,7.80
2022-11-27T12:16:50.353Z,7.80
2022-11-27T12:20:03.354Z,7.80
2022-11-27T12:23:23.436Z,7.90
2022-11-27T12:26:41.755Z,7.80
2022-11-27T12:29:56.679Z,7.80
2022-11-27T12:33:04.363Z,7.80
2022-11-27T12:36:28.098Z,7.80
2022-11-27T12:39:57.426Z,7.70
2022-11-27T12:43:31.546Z,7.70
2022-11-27T12:46:44.756Z,7.60
2022-11-27T12:49:51.847Z,7.60
2022-11-27T12:53:24.756Z,7.60
2022-11-27T12:56:45.855Z,7.60
2022-11-27T12:59:58.655Z,7.60
2022-11-27T13:03:27.664Z,7.50
2022-11-27T13:06:34.777Z,7.40
2022-11-27T13:09:44.284Z,7.30
2022-11-27T13:13:19.689Z,7.30
2022-11-27T13:16:31.957Z,7.30
2022-11-27T13:19:48.771Z,7.40
2022-11-27T13:22:51.453Z,7.40
2022-11-27T13:25:55.528Z,7.40
2022-11-27T13:29:03.621Z,7.40
2022-11-27T13:32:07.671Z,7.30
2022-11-27T13:35:27.966Z,7.40
2022-11-27T13:38:32.598Z,7.40
2022-11-27T13:41:40.197Z,7.30
2022-11-27T13:44:45.204Z,7.30
2022-11-27T13:47:47.434Z,7.40
2022-11-27T13:50:54.483Z,7.40
2022-11-27T13:54:11.135Z,7.40
2022-11-27T13:57:17.789Z,7.40
2022-11-27T14:00:38.186Z,7.30
2022-11-27T14:03:42.909Z,7.30
2022-11-27T14:07:00.476Z,7.30
2022-11-27T14:10:15.818Z,7.20
2022-11-27T14:13:18.204Z,7.10
2022-11-27T14:16:28.965Z,7.10
2022-11-27T14:19:41.972Z,7.10
2022-11-27T14:23:11.192Z,7.10
2022-11-27T14:26:15.415Z,7.10
2022-11-27T14:29:24.040Z,7.00
2022-11-27T14:32:35.947Z,7.00
2022-11-27T14:35:37.607Z,6.90
2022-11-27T14:38:39.256Z,6.90
2022-11-27T14:41:40.878Z,6.80
2022-11-27T14:44:42.470Z,6.80
2022-11-27T14:47:51.714Z,6.80
2022-11-27T14:50:55.530Z,6.80
2022-11-27T14:54:03.521Z,6.80
2022-11-27T14:57:06.851Z,6.70
2022-11-27T15:00:16.049Z,6.70
2022-11-27T15:03:18.684Z,6.70
2022-11-27T15:06:20.507Z,6.70
2022-11-27T15:09:33.588Z,6.70
2022-11-27T15:12:39.232Z,6.60
2022-11-27T15:15:44.040Z,6.60
2022-11-27T15:18:51.919Z,6.50
2022-11-27T15:21:53.854Z,6.50
2022-11-27T15:25:26.231Z,6.40
2022-11-27T15:28:40.793Z,6.40
2022-11-27T15:31:51.417Z,6.40
2022-11-27T15:34:55.829Z,6.40
2022-11-27T15:38:06.223Z,6.40
2022-11-27T15:41:26.008Z,6.40
2022-11-27T15:44:29.780Z,6.40
2022-11-27T15:47:36.188Z,6.40
2022-11-27T15:50:37.867Z,6.40
2022-11-27T15:53:39.513Z,6.40
2022-11-27T15:56:41.559Z,6.40
2022-11-27T15:59:43.200Z,6.40
2022-11-27T16:02:44.975Z,6.30
2022-11-27T16:05:46.741Z,6.40
2022-11-27T16:08:52.737Z,6.40
2022-11-27T16:11:54.407Z,6.40
2022-11-27T16:14:56.093Z,6.30
2022-11-27T16:17:57.765Z,6.40
2022-11-27T16:21:07.941Z,6.30
2022-11-27T16:24:13.500Z,6.30
2022-11-27T16:27:15.191Z,6.30
2022-11-27T16:30:19.815Z,6.30
2022-11-27T16:33:21.580Z,6.30
2022-11-27T16:36:23.585Z,6.20
2022-11-27T16:39:27.659Z,6.30
2022-11-27T16:42:29.351Z,6.20
2022-11-27T16:45:31.048Z,6.20
2022-11-27T16:48:34.158Z,6.20
2022-11-27T16:51:38.445Z,6.20
2022-11-27T16:54:40.222Z,6.10
2022-11-27T16:57:42.034Z,6.20
2022-11-27T17:00:43.756Z,6.10
2022-11-27T17:03:56.252Z,6.10
2022-11-27T17:06:57.905Z,6.10
2022-11-27T17:09:59.621Z,6.10
2022-11-27T17:13:01.279Z,6.10
2022-11-27T17:16:04.022Z,6.10
2022-11-27T17:19:05.696Z,6.10
2022-11-27T17:22:07.394Z,6.10
2022-11-27T17:25:11.103Z,6.10
2022-11-27T17:28:12.816Z,6.10
2022-11-27T17:31:19.702Z,6.10
2022-11-27T17:34:21.818Z,6.00
2022-11-27T17:37:23.644Z,6.00
2022-11-27T17:40:25.772Z,5.90
2022-11-27T17:43:46.416Z,5.90
2022-11-27T17:46:52.380Z,5.90
2022-11-27T17:49:54.034Z,5.90
2022-11-27T17:52:55.737Z,5.90
2022-11-27T17:56:02.933Z,5.90
2022-11-27T17:59:04.666Z,6.00
2022-11-27T18:02:06.993Z,6.00
2022-11-27T18:05:09.080Z,6.00
2022-11-27T18:08:10.799Z,6.00
2022-11-27T18:11:15.030Z,5.90
2022-11-27T18:14:17.303Z,5.90
2022-11-27T18:17:26.253Z,5.90
2022-11-27T18:24:50.917Z,5.80
2022-11-27T18:27:52.523Z,5.80
2022-11-27T18:30:54.236Z,5.70
2022-11-27T18:33:57.541Z,5.70
2022-11-27T18:37:00.710Z,5.70
2022-11-27T18:40:03.545Z,5.80
2022-11-27T18:43:07.269Z,5.80
2022-11-27T18:46:20.276Z,5.80
2022-11-27T18:49:23.183Z,5.80
2022-11-27T18:52:24.832Z,5.80
2022-11-27T18:55:26.567Z,5.70
2022-11-27T18:58:30.822Z,5.70
2022-11-27T19:01:40.905Z,5.80
2022-11-27T19:04:44.731Z,5.70
2022-11-27T19:07:46.746Z,5.70
2022-11-27T19:11:21.737Z,5.70
2022-11-27T19:14:23.410Z,5.70
2022-11-27T19:17:29.416Z,5.60
2022-11-27T19:20:37.390Z,5.60
2022-11-27T19:23:39.455Z,5.50
2022-11-27T19:26:41.157Z,5.50
2022-11-27T19:29:43.021Z,5.50
2022-11-27T19:32:45.277Z,5.40
2022-11-27T19:35:46.907Z,5.50
2022-11-27T19:38:54.553Z,5.40
2022-11-27T19:41:57.793Z,5.40
2022-11-27T19:44:59.548Z,5.40
2022-11-27T19:48:01.234Z,5.30
2022-11-27T19:51:03.139Z,5.30
2022-11-27T19:54:09.995Z,5.30
2022-11-27T19:57:12.524Z,5.30
2022-11-27T20:00:14.927Z,5.40
2022-11-27T20:03:16.566Z,5.40
2022-11-27T20:06:20.928Z,5.40
2022-11-27T20:09:22.613Z,5.30
2022-11-27T20:12:24.339Z,5.30
2022-11-27T20:15:25.983Z,5.30
2022-11-27T20:18:28.054Z,5.30
2022-11-27T20:21:29.719Z,5.30
2022-11-27T20:24:31.441Z,5.20
2022-11-27T20:27:35.059Z,5.20
2022-11-27T20:30:40.875Z,5.20
2022-11-27T20:33:43.011Z,5.30
2022-11-27T20:36:44.629Z,5.20
2022-11-27T20:39:46.430Z,5.20
2022-11-27T20:42:48.104Z,5.20
2022-11-27T20:45:52.727Z,5.20
2022-11-27T20:48:54.576Z,5.20
2022-11-27T20:51:57.692Z,5.20
2022-11-27T20:54:59.364Z,5.20
2022-11-27T20:58:06.123Z,5.20
2022-11-27T21:01:14.073Z,5.20
2022-11-27T21:04:24.558Z,5.20
2022-11-27T21:07:26.263Z,5.20
2022-11-27T21:10:31.019Z,5.20
2022-11-27T21:13:32.656Z,5.10
2022-11-27T21:16:39.921Z,5.10
2022-11-27T21:19:41.825Z,5.10
2022-11-27T21:22:44.013Z,5.10
2022-11-27T21:25:48.243Z,5.10
2022-11-27T21:28:58.066Z,5.10
2022-11-27T21:31:59.762Z,5.10
2022-11-27T21:35:01.632Z,5.10
2022-11-27T21:38:03.412Z,5.10
2022-11-27T21:41:05.221Z,5.10
2022-11-27T21:44:06.881Z,5.10
2022-11-27T21:47:12.259Z,5.00
2022-11-27T21:50:13.959Z,5.00
2022-11-27T21:53:15.792Z,5.00
2022-11-27T21:56:19.392Z,5.00
2022-11-27T21:59:21.576Z,5.10
2022-11-27T22:02:25.197Z,5.00
2022-11-27T22:05:26.929Z,5.00
2022-11-27T22:08:30.548Z,5.00
2022-11-27T22:11:39.314Z,5.00
2022-11-27T22:14:41.326Z,5.10
2022-11-27T22:17:43.248Z,5.00
2022-11-27T22:20:44.898Z,5.00
2022-11-27T22:23:46.621Z,5.10
2022-11-27T22:26:48.663Z,5.10
2022-11-27T22:29:50.387Z,5.10
2022-11-27T22:32:56.046Z,5.00
2022-11-27T22:35:57.699Z,5.00
2022-11-27T22:39:05.683Z,5.00
2022-11-27T22:42:07.300Z,5.00
2022-11-27T22:45:09.388Z,5.10
2022-11-27T22:48:10.969Z,5.00
2022-11-27T22:51:13.377Z,5.00
2022-11-27T22:54:16.831Z,5.00
2022-11-27T22:57:18.822Z,5.00
2022-11-27T23:00:21.112Z,5.00
2022-11-27T23:03:23.515Z,5.00
2022-11-27T23:06:25.254Z,4.90
2022-11-27T23:09:27.041Z,5.00
2022-11-27T23:12:28.685Z,4.90
2022-11-27T23:15:30.718Z,4.90
2022-11-27T23:18:33.944Z,4.90
2022-11-27T23:21:37.573Z,4.90
2022-11-27T23:24:39.654Z,4.90
2022-11-27T23:27:42.209Z,4.90
2022-11-27T23:30:43.865Z,4.90
2022-11-27T23:33:45.887Z,4.90
2022-11-27T23:36:47.580Z,4.90
2022-11-27T23:39:49.166Z,5.00
2022-11-27T23:42:50.980Z,5.00
2022-11-27T23:45:52.668Z,5.00
2022-11-27T23:48:55.413Z,5.00
2022-11-27T23:51:58.176Z,5.00
2022-11-27T23:54:59.826Z,5.10
2022-11-27T23:58:01.649Z,5.10
